Time;durP1;ratioP1;P1;durP2;ratioP2;P2;SDS_P1;SDS_P2;PMS_P1;PMS_P2;Temp;Humidity;BMP_temperature;BMP_pressure;BME280_temperature;BME280_humidity;BME280_pressure;Samples;Min_cycle;Max_cycle;Signal;HPM_P1;HPM_P2
2022/11/25 00:01:08;;;;;;;;;;;;;;;8.86;62.47;100922.41;5067461;28;19912;-79
2022/11/25 00:03:53;;;;;;;;;;;;;;;8.96;62.09;100913.28;5094811;28;19912;-80
2022/11/25 00:06:38;;;;;;;;;;;;;;;8.78;62.50;100911.44;5077581;28;19912;-81
2022/11/25 00:09:22;;;;;;;;;;;;;;;8.81;61.78;100913.56;5075517;28;19912;-81
2022/11/25 00:12:07;;;;;;;;;;;;;;;8.88;61.76;100914.78;5080173;28;19920;-80
2022/11/25 00:14:51;;;;;;;;;;;;;;;8.87;61.55;100925.91;5075340;28;19912;-80
2022/11/25 00:17:35;;;;;;;;;;;;;;;8.91;61.78;100916.06;5076331;28;19916;-79
2022/11/25 00:20:21;;;;;;;;;;;;;;;9.02;61.44;100904.75;5073688;28;20388;-79
2022/11/25 00:23:06;;;;;;;;;;;;;;;8.90;62.03;100899.00;5067871;28;19916;-79
2022/11/25 00:25:50;;;;;;;;;;;;;;;8.90;61.94;100898.19;5073947;28;19912;-79
2022/11/25 00:28:34;;;;;;;;;;;;;;;8.98;61.55;100900.22;5074499;28;20304;-80
2022/11/25 00:31:23;;;;;;;;;;;;;;;8.94;61.31;100894.59;5092136;28;19916;-80
2022/11/25 00:34:12;;;;;;;;;;;;;;;8.89;61.59;100888.44;5074063;28;19920;-79
2022/11/25 00:36:56;;;;;;;;;;;;;;;8.75;61.74;100899.28;5072573;28;19934;-80
2022/11/25 00:39:40;;;;;;;;;;;;;;;8.80;61.75;100891.06;5071189;28;20482;-78
2022/11/25 00:45:28;;;;;;;;;;;;;;;8.69;62.45;100889.63;5074893;28;20284;-79
2022/11/25 00:48:13;;;;;;;;;;;;;;;8.71;62.20;100894.75;5088634;28;19912;-80
2022/11/25 00:50:57;;;;;;;;;;;;;;;8.86;62.47;100894.47;5071199;28;19913;-79
2022/11/25 00:53:41;;;;;;;;;;;;;;;8.91;61.66;100897.91;5068842;28;19912;-79
2022/11/25 00:56:26;;;;;;;;;;;;;;;8.84;61.93;100904.81;5070999;28;19912;-79
2022/11/25 00:59:10;;;;;;;;;;;;;;;8.66;62.42;100905.69;5074345;28;20376;-79
2022/11/25 01:01:56;;;;;;;;;;;;;;;8.58;62.77;100910.66;5072500;28;19916;-78
2022/11/25 01:04:40;;;;;;;;;;;;;;;8.65;62.97;100909.50;5096069;28;19916;-81
2022/11/25 01:07:24;;;;;;;;;;;;;;;8.91;62.17;100925.03;5075054;28;19913;-81
2022/11/25 01:10:09;;;;;;;;;;;;;;;9.12;61.50;100925.47;5085469;28;20376;-81
2022/11/25 01:12:55;;;;;;;;;;;;;;;8.96;61.28;100929.53;5074276;28;19920;-81
2022/11/25 01:15:40;;;;;;;;;;;;;;;8.88;61.95;100931.06;5075816;28;20372;-80
2022/11/25 01:18:27;;;;;;;;;;;;;;;8.80;61.55;100941.75;5070580;28;19912;-81
2022/11/25 01:21:17;;;;;;;;;;;;;;;8.41;62.98;100936.72;5071212;28;19913;-81
2022/11/25 01:24:04;;;;;;;;;;;;;;;7.99;64.47;100937.59;5078246;28;19913;-81
2022/11/25 01:26:52;;;;;;;;;;;;;;;7.83;64.98;100938.88;5094215;28;19912;-81
2022/11/25 01:29:41;;;;;;;;;;;;;;;7.69;65.93;100953.13;5076769;28;19912;-81
2022/11/25 01:32:26;;;;;;;;;;;;;;;7.84;65.24;100948.63;5071426;28;19920;-80
2022/11/25 01:35:10;;;;;;;;;;;;;;;8.05;64.35;100952.66;5070325;28;19912;-81
2022/11/25 01:37:55;;;;;;;;;;;;;;;7.88;64.94;100955.06;5070822;28;19912;-81
2022/11/25 01:40:42;;;;;;;;;;;;;;;7.87;65.47;100970.53;5072394;28;20297;-80
2022/11/25 01:43:27;;;;;;;;;;;;;;;8.00;64.08;100969.00;5070073;28;20389;-80
2022/11/25 01:46:21;;;;;;;;;;;;;;;7.79;65.17;100975.75;5078263;28;19912;-81
2022/11/25 01:49:09;;;;;;;;;;;;;;;7.76;65.41;100979.88;5073958;28;20300;-80
2022/11/25 01:52:08;;;;;;;;;;;;;;;8.03;64.19;100973.81;5086622;28;19916;-81
2022/11/25 01:54:57;;;;;;;;;;;;;;;8.29;63.01;100980.47;5071210;28;19912;-81
2022/11/25 01:57:46;;;;;;;;;;;;;;;8.48;62.43;100989.44;5070692;28;19913;-81
2022/11/25 02:00:31;;;;;;;;;;;;;;;8.49;62.26;100996.47;5073343;28;20150;-81
2022/11/25 02:03:25;;;;;;;;;;;;;;;8.46;61.98;100997.06;5074322;28;19912;-79
2022/11/25 02:06:13;;;;;;;;;;;;;;;8.63;61.91;100996.56;5088806;28;20385;-80
2022/11/25 02:09:03;;;;;;;;;;;;;;;8.62;61.38;100988.72;5092020;28;19917;-82
2022/11/25 02:11:51;;;;;;;;;;;;;;;8.63;61.50;100984.91;5073685;28;19916;-81
2022/11/25 02:14:35;;;;;;;;;;;;;;;8.68;61.64;100995.66;5071042;28;19912;-79
2022/11/25 02:17:20;;;;;;;;;;;;;;;8.78;61.46;101009.06;5071526;28;19920;-81
2022/11/25 02:20:05;;;;;;;;;;;;;;;8.87;60.64;101012.69;5085799;28;19912;-81
2022/11/25 02:22:50;;;;;;;;;;;;;;;8.56;61.49;101023.22;5055254;28;19913;-80
2022/11/25 02:25:36;;;;;;;;;;;;;;;8.49;61.91;101018.16;5061106;28;19913;-79
2022/11/25 02:28:26;;;;;;;;;;;;;;;8.44;62.05;101015.50;5072232;28;19912;-79
2022/11/25 02:31:11;;;;;;;;;;;;;;;8.59;62.35;101022.59;5066797;28;19913;-79
2022/11/25 02:33:56;;;;;;;;;;;;;;;8.64;61.57;101027.16;5073588;28;19912;-80
2022/11/25 02:36:40;;;;;;;;;;;;;;;8.64;61.90;101019.00;5071567;28;19913;-79
2022/11/25 02:39:24;;;;;;;;;;;;;;;8.53;61.83;101016.47;5066397;28;19912;-79
2022/11/25 02:42:09;;;;;;;;;;;;;;;8.43;62.14;101011.19;5083101;28;19912;-79
2022/11/25 02:44:54;;;;;;;;;;;;;;;8.62;62.50;101011.19;5070925;28;19912;-79
2022/11/25 02:47:38;;;;;;;;;;;;;;;8.58;62.17;101012.91;5074264;28;19916;-79
2022/11/25 02:50:23;;;;;;;;;;;;;;;8.55;62.61;101013.47;5071709;28;20381;-79
2022/11/25 02:53:08;;;;;;;;;;;;;;;8.59;62.07;101000.94;5074874;28;19924;-79
2022/11/25 02:55:54;;;;;;;;;;;;;;;8.56;62.56;101007.75;5073627;28;19913;-80
2022/11/25 02:58:39;;;;;;;;;;;;;;;8.66;62.26;101019.53;5064468;28;19912;-79
2022/11/25 03:01:26;;;;;;;;;;;;;;;8.57;61.89;101020.22;5052237;28;19913;-80
2022/11/25 03:04:11;;;;;;;;;;;;;;;8.53;63.21;101026.53;5053304;28;19912;-79
2022/11/25 03:06:56;;;;;;;;;;;;;;;8.62;62.32;101032.06;5062276;28;19912;-78
2022/11/25 03:09:42;;;;;;;;;;;;;;;8.55;62.83;101030.53;5073543;28;19912;-78
2022/11/25 03:12:29;;;;;;;;;;;;;;;8.30;63.22;101019.25;5071972;28;19916;-77
2022/11/25 03:15:15;;;;;;;;;;;;;;;8.32;64.06;101026.00;5067618;28;19912;-79
2022/11/25 03:18:02;;;;;;;;;;;;;;;8.49;62.94;101034.41;5071581;28;19932;-79
2022/11/25 03:20:50;;;;;;;;;;;;;;;8.64;63.13;101041.50;5073770;28;20380;-80
2022/11/25 03:23:35;;;;;;;;;;;;;;;8.47;63.01;101047.47;5085688;28;19912;-79
2022/11/25 03:26:20;;;;;;;;;;;;;;;8.39;63.81;101048.09;5076765;28;19912;-79
2022/11/25 03:29:04;;;;;;;;;;;;;;;8.29;64.36;101056.34;5068429;28;19912;-78
2022/11/25 03:31:51;;;;;;;;;;;;;;;8.33;64.38;101053.91;5075360;28;19916;-79
2022/11/25 03:34:38;;;;;;;;;;;;;;;8.31;64.38;101056.09;5076550;28;19920;-78
2022/11/25 03:37:23;;;;;;;;;;;;;;;8.33;64.54;101051.97;5075579;28;19920;-79
2022/11/25 03:40:09;;;;;;;;;;;;;;;8.32;64.46;101060.41;5076750;28;19916;-81
2022/11/25 03:42:53;;;;;;;;;;;;;;;8.31;64.96;101061.50;5082570;28;19912;-82
2022/11/25 03:45:38;;;;;;;;;;;;;;;8.34;65.57;101061.72;5095859;28;19913;-81
2022/11/25 03:48:24;;;;;;;;;;;;;;;8.43;64.87;101062.69;5078816;28;19912;-81
2022/11/25 03:51:09;;;;;;;;;;;;;;;8.54;64.79;101058.72;5082449;28;19912;-82
2022/11/25 03:53:55;;;;;;;;;;;;;;;8.57;65.19;101057.34;5080714;28;19916;-79
2022/11/25 03:56:41;;;;;;;;;;;;;;;8.46;64.23;101043.13;5070988;28;19912;-79
2022/11/25 03:59:26;;;;;;;;;;;;;;;8.14;65.70;101041.09;5082064;28;19913;-79
2022/11/25 04:02:10;;;;;;;;;;;;;;;8.01;67.16;101049.94;5080431;28;19912;-78
2022/11/25 04:04:55;;;;;;;;;;;;;;;8.00;67.43;101056.44;5077962;28;19920;-81
2022/11/25 04:07:40;;;;;;;;;;;;;;;7.99;67.26;101054.03;5077689;28;19916;-81
2022/11/25 04:10:26;;;;;;;;;;;;;;;7.97;66.39;101045.41;5077283;28;20401;-80
2022/11/25 04:13:12;;;;;;;;;;;;;;;7.79;66.82;101054.25;5082842;28;19924;-81
2022/11/25 04:15:59;;;;;;;;;;;;;;;7.92;67.22;101059.81;5081783;28;19912;-81
2022/11/25 04:18:44;;;;;;;;;;;;;;;8.08;66.87;101060.41;5077399;28;19912;-78
2022/11/25 04:21:28;;;;;;;;;;;;;;;8.23;66.44;101060.22;5076308;28;20308;-81
2022/11/25 04:24:12;;;;;;;;;;;;;;;8.37;66.19;101052.22;5077399;28;19912;-81
2022/11/25 04:26:57;;;;;;;;;;;;;;;8.25;66.21;101049.09;5076741;28;19916;-82
2022/11/25 04:29:41;;;;;;;;;;;;;;;8.05;66.02;101053.69;5076263;28;19916;-80
2022/11/25 04:32:28;;;;;;;;;;;;;;;7.83;67.81;101063.41;5076197;28;19920;-80
2022/11/25 04:35:12;;;;;;;;;;;;;;;8.05;67.35;101061.00;5093321;28;20377;-80
2022/11/25 04:38:00;;;;;;;;;;;;;;;8.30;66.44;101060.69;5076332;28;19912;-81
2022/11/25 04:40:46;;;;;;;;;;;;;;;8.47;65.97;101058.31;5075520;28;20388;-81
2022/11/25 04:43:34;;;;;;;;;;;;;;;8.41;64.87;101051.34;5078109;28;20369;-81
2022/11/25 04:46:25;;;;;;;;;;;;;;;8.36;64.62;101054.13;5068864;28;19912;-82
2022/11/25 04:49:09;;;;;;;;;;;;;;;8.28;64.67;101056.66;5080017;28;19916;-81
2022/11/25 04:51:55;;;;;;;;;;;;;;;8.39;64.91;101055.44;5073996;28;19917;-80
2022/11/25 04:54:40;;;;;;;;;;;;;;;8.39;64.71;101042.69;5073349;28;19912;-81
2022/11/25 04:57:24;;;;;;;;;;;;;;;8.31;64.60;101034.41;5082734;28;19917;-80
2022/11/25 05:00:10;;;;;;;;;;;;;;;8.22;65.26;101025.31;5070291;28;19912;-81
2022/11/25 05:02:55;;;;;;;;;;;;;;;8.12;65.75;101028.97;5076414;28;19912;-81
2022/11/25 05:05:41;;;;;;;;;;;;;;;8.14;65.61;101026.75;5073059;28;19916;-80
2022/11/25 05:08:25;;;;;;;;;;;;;;;8.25;65.43;101022.00;5068332;28;19920;-80
2022/11/25 05:11:10;;;;;;;;;;;;;;;8.29;65.25;101025.72;5074667;28;19912;-80
2022/11/25 05:13:55;;;;;;;;;;;;;;;8.25;65.50;101027.41;5081656;28;19916;-79
2022/11/25 05:16:40;;;;;;;;;;;;;;;8.33;65.12;101032.22;5077373;28;19917;-78
2022/11/25 05:19:26;;;;;;;;;;;;;;;8.22;65.64;101039.66;5089994;28;19913;-78
2022/11/25 05:22:13;;;;;;;;;;;;;;;8.26;65.31;101037.97;5072395;28;20304;-78
2022/11/25 05:24:59;;;;;;;;;;;;;;;8.24;65.37;101042.06;5088366;28;19920;-79
2022/11/25 05:27:44;;;;;;;;;;;;;;;8.28;65.38;101038.47;5079995;28;20381;-80
2022/11/25 05:30:31;;;;;;;;;;;;;;;8.20;64.70;101036.41;5079155;28;20617;-80
2022/11/25 05:33:15;;;;;;;;;;;;;;;8.18;64.63;101032.41;5077049;28;20388;-81
2022/11/25 05:36:01;;;;;;;;;;;;;;;8.22;64.39;101034.25;5069125;28;19913;-79
2022/11/25 05:38:54;;;;;;;;;;;;;;;8.20;64.27;101036.41;5060621;28;19912;-74
2022/11/25 05:41:48;;;;;;;;;;;;;;;8.18;65.27;101033.19;5073333;28;20328;-76
2022/11/25 05:44:33;;;;;;;;;;;;;;;8.03;65.31;101036.09;5069598;28;19920;-75
2022/11/25 05:47:18;;;;;;;;;;;;;;;8.11;64.94;101030.06;5071618;28;19916;-75
2022/11/25 05:50:02;;;;;;;;;;;;;;;8.15;64.17;101037.28;5072586;28;19912;-76
2022/11/25 05:52:48;;;;;;;;;;;;;;;8.24;64.19;101052.88;5089186;28;20412;-74
2022/11/25 05:55:33;;;;;;;;;;;;;;;8.34;64.29;101059.00;5073771;28;19913;-76
2022/11/25 05:58:21;;;;;;;;;;;;;;;8.36;63.92;101062.25;5072365;28;19912;-76
2022/11/25 06:01:11;;;;;;;;;;;;;;;8.38;64.27;101060.03;5061743;28;20293;-76
2022/11/25 06:03:58;;;;;;;;;;;;;;;8.27;63.88;101066.69;5069052;28;19912;-77
2022/11/25 06:06:43;;;;;;;;;;;;;;;8.21;63.73;101053.47;5075732;28;19912;-77
2022/11/25 06:09:27;;;;;;;;;;;;;;;8.18;64.18;101068.41;5075461;28;20388;-77
2022/11/25 06:12:13;;;;;;;;;;;;;;;8.18;64.09;101065.69;5071988;28;19917;-77
2022/11/25 06:15:05;;;;;;;;;;;;;;;8.09;63.45;101060.13;5074528;28;19912;-79
2022/11/25 06:17:52;;;;;;;;;;;;;;;7.94;64.32;101064.91;5076335;28;19912;-77
2022/11/25 06:20:41;;;;;;;;;;;;;;;8.15;64.16;101077.94;5073076;28;20343;-79
2022/11/25 06:23:26;;;;;;;;;;;;;;;8.23;63.69;101079.16;5074677;28;19912;-79
2022/11/25 06:26:15;;;;;;;;;;;;;;;8.41;63.75;101075.72;5075345;28;19912;-78
2022/11/25 06:29:00;;;;;;;;;;;;;;;7.89;63.76;101073.09;5087554;28;19927;-80
2022/11/25 06:31:44;;;;;;;;;;;;;;;7.54;65.35;101074.28;5072362;28;19916;-80
2022/11/25 06:34:47;;;;;;;;;;;;;;;7.70;65.41;101087.38;5072534;28;19920;-77
2022/11/25 06:37:45;;;;;;;;;;;;;;;7.98;64.66;101082.19;5074905;28;19912;-77
2022/11/25 06:40:29;;;;;;;;;;;;;;;7.95;63.88;101075.47;5073228;28;20364;-78
2022/11/25 06:43:14;;;;;;;;;;;;;;;7.64;65.02;101093.94;5064335;28;20292;-78
2022/11/25 06:46:10;;;;;;;;;;;;;;;7.71;65.21;101089.00;5079073;28;19913;-78
2022/11/25 06:48:57;;;;;;;;;;;;;;;7.91;64.26;101096.09;5076937;28;19913;-78
2022/11/25 06:51:42;;;;;;;;;;;;;;;7.85;64.00;101101.84;5074789;28;19912;-77
2022/11/25 06:54:26;;;;;;;;;;;;;;;7.85;64.42;101105.38;5077953;28;19916;-76
2022/11/25 06:57:11;;;;;;;;;;;;;;;7.79;65.51;101103.00;5070609;28;19912;-79
2022/11/25 06:59:56;;;;;;;;;;;;;;;7.76;66.80;101103.56;5070641;28;19912;-74
2022/11/25 07:02:40;;;;;;;;;;;;;;;7.82;66.30;101102.44;5067639;28;19916;-75
2022/11/25 07:05:25;;;;;;;;;;;;;;;7.96;65.23;101109.56;5072199;28;19913;-77
2022/11/25 07:08:09;;;;;;;;;;;;;;;7.69;65.47;101109.31;5072776;28;19912;-76
2022/11/25 07:10:53;;;;;;;;;;;;;;;7.82;65.85;101111.38;5074400;28;19912;-78
2022/11/25 07:13:38;;;;;;;;;;;;;;;7.77;65.25;101102.50;5081953;28;19920;-76
2022/11/25 07:16:22;;;;;;;;;;;;;;;7.22;65.34;101104.59;5076064;28;19912;-77
2022/11/25 07:19:06;;;;;;;;;;;;;;;6.92;66.87;101105.63;5073447;28;19932;-76
2022/11/25 07:21:51;;;;;;;;;;;;;;;7.04;67.34;101106.09;5074991;28;19916;-76
2022/11/25 07:24:35;;;;;;;;;;;;;;;7.22;66.10;101112.72;5075076;28;19912;-77
2022/11/25 07:27:20;;;;;;;;;;;;;;;7.41;66.11;101105.53;5073187;28;20305;-77
2022/11/25 07:30:04;;;;;;;;;;;;;;;7.58;66.89;101127.56;5072029;28;19912;-78
2022/11/25 07:32:49;;;;;;;;;;;;;;;7.67;65.96;101120.41;5074201;28;19916;-77
2022/11/25 07:35:33;;;;;;;;;;;;;;;7.81;64.93;101120.56;5071965;28;20385;-77
2022/11/25 07:38:18;;;;;;;;;;;;;;;7.82;64.97;101132.22;5067948;28;20304;-78
2022/11/25 07:41:07;;;;;;;;;;;;;;;7.90;64.83;101134.28;5074491;28;19916;-77
2022/11/25 07:43:55;;;;;;;;;;;;;;;7.99;65.05;101133.34;5073992;28;19913;-78
2022/11/25 07:46:43;;;;;;;;;;;;;;;8.04;65.04;101137.91;5071058;28;20300;-77
2022/11/25 07:49:27;;;;;;;;;;;;;;;8.01;65.37;101123.06;5075864;28;19916;-77
2022/11/25 07:52:12;;;;;;;;;;;;;;;8.12;65.97;101129.97;5066943;28;19913;-77
2022/11/25 07:54:56;;;;;;;;;;;;;;;8.14;66.02;101129.66;5078910;28;19912;-78
2022/11/25 07:57:41;;;;;;;;;;;;;;;8.20;66.80;101133.94;5069780;28;19916;-78
2022/11/25 08:00:25;;;;;;;;;;;;;;;8.30;66.46;101139.28;5075117;28;19934;-77
2022/11/25 08:03:09;;;;;;;;;;;;;;;8.38;66.30;101140.56;5074871;28;19912;-77
2022/11/25 08:05:54;;;;;;;;;;;;;;;8.37;66.67;101141.63;5075459;28;19913;-78
2022/11/25 08:08:40;;;;;;;;;;;;;;;8.37;66.64;101138.94;5069711;28;19912;-78
2022/11/25 08:11:26;;;;;;;;;;;;;;;8.44;67.15;101142.88;5074620;28;19916;-79
2022/11/25 08:14:11;;;;;;;;;;;;;;;8.52;66.89;101146.88;5095138;28;19916;-78
2022/11/25 08:16:55;;;;;;;;;;;;;;;8.57;66.20;101147.63;5087700;28;19913;-77
2022/11/25 08:19:40;;;;;;;;;;;;;;;8.66;65.83;101144.25;5078059;28;19913;-77
2022/11/25 08:22:24;;;;;;;;;;;;;;;8.65;66.03;101150.75;5094618;28;19912;-80
2022/11/25 08:25:09;;;;;;;;;;;;;;;8.70;66.28;101153.41;5078103;28;19913;-79
2022/11/25 08:27:54;;;;;;;;;;;;;;;8.74;66.67;101159.84;5077746;28;20304;-78
2022/11/25 08:30:39;;;;;;;;;;;;;;;8.81;66.44;101155.69;5080505;28;19912;-78
2022/11/25 08:33:23;;;;;;;;;;;;;;;8.84;66.53;101152.38;5073105;28;19916;-78
2022/11/25 08:36:08;;;;;;;;;;;;;;;8.90;66.04;101153.09;5075472;28;19920;-78
2022/11/25 08:38:56;;;;;;;;;;;;;;;8.94;66.12;101149.53;5075700;28;19912;-78
2022/11/25 08:41:41;;;;;;;;;;;;;;;9.05;65.48;101149.38;5077430;28;20389;-78
2022/11/25 08:44:27;;;;;;;;;;;;;;;9.12;65.04;101153.34;5077131;28;19913;-78
2022/11/25 08:47:12;;;;;;;;;;;;;;;9.18;65.11;101154.88;5074395;28;19912;-78
2022/11/25 08:49:57;;;;;;;;;;;;;;;9.22;65.27;101161.31;5077504;28;19912;-78
2022/11/25 08:52:41;;;;;;;;;;;;;;;9.29;65.19;101152.81;5075780;28;20388;-78
2022/11/25 08:55:26;;;;;;;;;;;;;;;9.28;64.64;101154.72;5087576;28;20300;-79
2022/11/25 08:58:12;;;;;;;;;;;;;;;9.29;64.37;101152.81;5075726;28;19916;-79
2022/11/25 09:00:56;;;;;;;;;;;;;;;9.30;63.87;101144.34;5074879;28;19912;-78
2022/11/25 09:03:43;;;;;;;;;;;;;;;9.37;63.66;101152.94;5079222;28;19916;-79
2022/11/25 09:06:28;;;;;;;;;;;;;;;9.41;63.13;101148.53;5075002;28;20513;-77
2022/11/25 09:09:12;;;;;;;;;;;;;;;9.47;62.80;101146.53;5074770;28;19913;-78
2022/11/25 09:11:57;;;;;;;;;;;;;;;9.51;63.22;101139.41;5091777;28;20285;-78
2022/11/25 09:14:41;;;;;;;;;;;;;;;9.57;63.43;101140.94;5074391;28;20451;-78
2022/11/25 09:17:26;;;;;;;;;;;;;;;9.63;62.87;101142.47;5072741;28;19912;-79
2022/11/25 09:20:10;;;;;;;;;;;;;;;9.70;63.52;101147.50;5072106;28;19912;-78
2022/11/25 09:22:57;;;;;;;;;;;;;;;9.77;62.99;101156.06;5078872;28;20381;-78
2022/11/25 09:25:49;;;;;;;;;;;;;;;9.85;62.84;101153.44;5079537;28;19913;-79
2022/11/25 09:28:34;;;;;;;;;;;;;;;9.91;62.27;101150.63;5077342;28;19912;-79
2022/11/25 09:31:19;;;;;;;;;;;;;;;9.96;62.10;101148.63;5076166;28;19916;-76
2022/11/25 09:34:03;;;;;;;;;;;;;;;9.99;62.42;101153.50;5072404;28;19916;-78
2022/11/25 09:36:48;;;;;;;;;;;;;;;10.06;62.21;101147.63;5077588;28;19917;-79
2022/11/25 09:39:34;;;;;;;;;;;;;;;10.11;61.96;101151.06;5087481;28;19912;-78
2022/11/25 09:48:51;;;;;;;;;;;;;;;10.26;60.95;101153.53;5084660;28;19913;-78
2022/11/25 09:51:35;;;;;;;;;;;;;;;10.33;60.84;101157.75;5079325;28;19912;-78
2022/11/25 09:54:23;;;;;;;;;;;;;;;10.37;60.56;101158.75;5080821;28;19916;-78
2022/11/25 09:57:25;;;;;;;;;;;;;;;10.41;60.12;101165.22;5074217;28;20301;-76
2022/11/25 10:00:12;;;;;;;;;;;;;;;10.52;59.95;101161.97;5077494;28;19913;-77
2022/11/25 10:03:04;;;;;;;;;;;;;;;10.60;60.29;101157.75;5079534;28;19912;-78
2022/11/25 10:06:01;;;;;;;;;;;;;;;10.65;59.84;101155.72;5098922;22;19929;-81
2022/11/25 10:08:55;;;;;;;;;;;;;;;10.69;59.87;101156.72;5026815;28;19921;-81
2022/11/25 10:11:46;;;;;;;;;;;;;;;10.71;59.53;101148.25;5031482;28;19913;-81
2022/11/25 10:14:30;;;;;;;;;;;;;;;10.78;59.41;101148.63;5028202;28;19917;-78
2022/11/25 10:17:33;;;;;;;;;;;;;;;10.87;59.58;101151.44;5035869;28;20104;-78
2022/11/25 10:20:24;;;;;;;;;;;;;;;10.95;59.23;101156.97;5026230;28;19912;-80
2022/11/25 10:23:18;;;;;;;;;;;;;;;10.99;59.45;101144.34;5034954;28;19917;-80
2022/11/25 10:26:11;;;;;;;;;;;;;;;11.04;60.92;101146.16;5031439;28;20377;-80
2022/11/25 10:29:05;;;;;;;;;;;;;;;11.12;60.26;101139.97;5033500;28;19913;-80
2022/11/25 10:31:55;;;;;;;;;;;;;;;11.19;60.56;101134.09;5039810;28;19912;-80
2022/11/25 10:34:49;;;;;;;;;;;;;;;11.26;60.88;101142.63;5038930;28;19917;-82
2022/11/25 10:37:38;;;;;;;;;;;;;;;11.28;60.36;101145.84;5036345;28;19935;-80
2022/11/25 10:40:23;;;;;;;;;;;;;;;11.36;60.26;101143.19;5042578;28;20366;-80
2022/11/25 10:43:11;;;;;;;;;;;;;;;11.43;60.76;101137.31;5042868;28;19912;-80
2022/11/25 10:46:15;;;;;;;;;;;;;;;11.47;60.70;101139.13;5027724;28;19914;-80
2022/11/25 10:49:00;;;;;;;;;;;;;;;11.50;60.82;101129.50;5028141;28;19921;-80
2022/11/25 10:51:46;;;;;;;;;;;;;;;11.55;59.81;101138.34;5036581;28;19917;-78
2022/11/25 10:54:31;;;;;;;;;;;;;;;11.59;60.13;101141.25;5027999;28;19917;-77
2022/11/25 10:57:19;;;;;;;;;;;;;;;11.62;59.87;101137.13;5032451;28;20305;-77
2022/11/25 11:00:05;;;;;;;;;;;;;;;11.64;59.31;101132.16;5032464;28;19917;-77
2022/11/25 11:02:49;;;;;;;;;;;;;;;11.68;59.65;101128.50;5027022;28;19913;-77
2022/11/25 11:05:42;;;;;;;;;;;;;;;11.73;60.86;101135.78;5019885;28;20378;-77
2022/11/25 11:08:35;;;;;;;;;;;;;;;11.78;60.17;101122.81;5023875;28;19913;-77
2022/11/25 11:11:21;;;;;;;;;;;;;;;11.80;59.92;101111.59;5033168;28;19921;-79
2022/11/25 11:14:17;;;;;;;;;;;;;;;11.83;60.23;101111.78;5026513;28;19924;-80
2022/11/25 11:17:02;;;;;;;;;;;;;;;11.81;59.89;101110.47;5038067;28;19913;-80
2022/11/25 11:19:59;;;;;;;;;;;;;;;11.85;60.11;101100.56;5037024;28;19913;-79
2022/11/25 11:22:47;;;;;;;;;;;;;;;11.87;60.75;101098.34;5038943;28;19913;-80
2022/11/25 11:25:32;;;;;;;;;;;;;;;11.88;60.07;101094.50;5035331;28;20405;-80
2022/11/25 11:28:23;;;;;;;;;;;;;;;11.83;60.28;101095.44;5035538;28;19913;-80
2022/11/25 11:31:14;;;;;;;;;;;;;;;11.84;60.28;101097.03;5039484;28;19913;-81
2022/11/25 11:34:24;;;;;;;;;;;;;;;11.81;60.29;101100.38;5040300;28;19917;-80
2022/11/25 11:37:08;;;;;;;;;;;;;;;11.81;60.37;101094.94;5040277;28;19932;-81
2022/11/25 11:39:58;;;;;;;;;;;;;;;11.90;60.58;101092.25;5040560;28;19913;-81
2022/11/25 11:43:01;;;;;;;;;;;;;;;12.01;60.38;101093.56;5033815;28;19913;-81
2022/11/25 11:46:15;;;;;;;;;;;;;;;11.99;60.12;101085.69;5038409;28;19921;-81
2022/11/25 11:49:19;;;;;;;;;;;;;;;12.09;61.19;101094.75;5033858;28;19917;-81
2022/11/25 11:52:07;;;;;;;;;;;;;;;12.15;60.36;101088.00;5044151;28;19917;-82
2022/11/25 11:54:52;;;;;;;;;;;;;;;12.23;59.92;101084.50;5046834;28;20309;-81
2022/11/25 11:57:50;;;;;;;;;;;;;;;12.26;59.63;101095.56;5031957;28;19913;-82
2022/11/25 12:00:42;;;;;;;;;;;;;;;12.22;59.49;101085.63;5039414;28;19913;-81
2022/11/25 12:03:28;;;;;;;;;;;;;;;12.21;59.83;101081.28;5029508;28;19913;-81
2022/11/25 12:06:14;;;;;;;;;;;;;;;12.18;60.06;101077.28;5039477;28;19917;-81
2022/11/25 12:09:19;;;;;;;;;;;;;;;12.18;60.19;101077.28;5041010;28;19917;-81
2022/11/25 12:12:05;;;;;;;;;;;;;;;12.84;57.86;101081.53;5025224;28;19913;-75
2022/11/25 12:14:54;;;;;;;;;;;;;;;13.05;58.25;101069.97;5022401;28;20377;-73
2022/11/25 12:17:54;;;;;;;;;;;;;;;13.01;58.38;101069.78;5006437;28;19916;-73
2022/11/25 12:20:51;;;;;;;;;;;;;;;13.33;57.13;101068.50;5020555;28;20390;-76
2022/11/25 12:23:38;;;;;;;;;;;;;;;13.41;57.96;101069.63;5029563;28;20317;-75
2022/11/25 12:26:29;;;;;;;;;;;;;;;13.42;57.64;101066.53;5015032;28;19912;-76
2022/11/25 12:29:24;;;;;;;;;;;;;;;13.51;56.63;101069.28;5023280;28;19917;-76
2022/11/25 12:32:08;;;;;;;;;;;;;;;13.61;56.88;101064.22;5026095;28;19913;-75
2022/11/25 12:34:58;;;;;;;;;;;;;;;13.67;56.38;101067.59;5031498;28;19917;-75
2022/11/25 12:37:51;;;;;;;;;;;;;;;13.89;55.36;101072.00;5033363;28;19920;-75
2022/11/25 12:40:54;;;;;;;;;;;;;;;13.84;55.49;101074.94;5034376;28;19913;-75
2022/11/25 12:43:45;;;;;;;;;;;;;;;13.93;55.13;101081.16;5034456;28;19917;-74
2022/11/25 12:46:33;;;;;;;;;;;;;;;13.89;54.90;101078.28;5039073;28;20323;-85
2022/11/25 12:49:23;;;;;;;;;;;;;;;14.03;54.79;101078.84;5034510;28;19913;-85
2022/11/25 12:52:26;;;;;;;;;;;;;;;14.06;54.47;101069.19;5042585;28;19913;-83
2022/11/25 12:55:12;;;;;;;;;;;;;;;13.99;54.81;101058.78;5032173;28;19917;-87
2022/11/25 12:58:15;;;;;;;;;;;;;;;14.01;54.27;101058.44;5040810;28;19913;-87
2022/11/25 13:01:02;;;;;;;;;;;;;;;14.10;53.87;101054.53;5041484;28;19916;-83
2022/11/25 13:04:12;;;;;;;;;;;;;;;14.19;53.25;101046.28;5037700;28;19913;-85
2022/11/25 13:07:11;;;;;;;;;;;;;;;14.30;52.98;101042.03;5031358;28;19925;-84
2022/11/25 13:10:09;;;;;;;;;;;;;;;14.48;52.67;101049.00;5036847;28;19913;-85
2022/11/25 13:13:06;;;;;;;;;;;;;;;14.71;52.08;101038.53;5032199;28;19917;-84
2022/11/25 13:15:53;;;;;;;;;;;;;;;14.85;51.88;101057.41;5037872;28;19917;-84
2022/11/25 13:18:39;;;;;;;;;;;;;;;14.98;51.00;101048.91;5039657;28;19913;-82
2022/11/25 13:21:26;;;;;;;;;;;;;;;14.97;50.92;101054.72;5025772;28;20385;-84
2022/11/25 13:24:25;;;;;;;;;;;;;;;15.01;50.37;101050.19;5040044;28;20715;-82
2022/11/25 13:27:29;;;;;;;;;;;;;;;15.02;50.20;101049.03;5035625;28;19917;-85
2022/11/25 13:30:32;;;;;;;;;;;;;;;15.07;50.98;101059.78;5040609;28;19912;-87
2022/11/25 13:33:20;;;;;;;;;;;;;;;14.93;51.53;101060.06;5037765;28;19913;-86
2022/11/25 13:36:15;;;;;;;;;;;;;;;14.78;51.66;101065.38;5040698;28;19913;-85
2022/11/25 13:39:03;;;;;;;;;;;;;;;14.84;52.20;101066.75;5030055;28;20129;-86
2022/11/25 13:41:56;;;;;;;;;;;;;;;15.06;51.70;101058.19;5024709;28;19991;-83
2022/11/25 13:44:52;;;;;;;;;;;;;;;15.36;51.26;101058.84;5033717;28;19921;-83
2022/11/25 13:47:38;;;;;;;;;;;;;;;15.54;50.94;101060.31;5031906;28;19917;-84
2022/11/25 13:50:24;;;;;;;;;;;;;;;15.47;50.28;101054.53;5021097;28;19913;-85
2022/11/25 13:53:21;;;;;;;;;;;;;;;15.19;51.21;101050.78;5016946;28;19917;-83
2022/11/25 13:56:28;;;;;;;;;;;;;;;14.95;52.45;101048.78;5032340;28;19913;-82
2022/11/25 13:59:16;;;;;;;;;;;;;;;14.80;52.92;101049.41;5025079;28;19913;-82
2022/11/25 14:02:22;;;;;;;;;;;;;;;14.67;53.29;101058.69;5028326;28;20385;-83
2022/11/25 14:05:15;;;;;;;;;;;;;;;14.53;53.28;101064.41;5039694;28;19913;-83
2022/11/25 14:08:12;;;;;;;;;;;;;;;14.41;53.49;101064.34;5039451;28;20300;-82
2022/11/25 14:11:04;;;;;;;;;;;;;;;14.38;54.16;101059.53;5026281;28;19913;-84
2022/11/25 14:13:58;;;;;;;;;;;;;;;14.32;55.01;101063.59;5030342;28;19917;-83
2022/11/25 14:16:42;;;;;;;;;;;;;;;14.18;55.25;101061.06;5039168;28;20385;-83
2022/11/25 14:19:45;;;;;;;;;;;;;;;14.04;55.23;101065.97;5019914;28;19913;-83
2022/11/25 14:22:59;;;;;;;;;;;;;;;13.94;55.74;101066.34;5019879;28;19917;-80
2022/11/25 14:25:54;;;;;;;;;;;;;;;13.89;56.50;101050.94;5005848;28;19913;-83
2022/11/25 14:28:46;;;;;;;;;;;;;;;13.95;56.00;101049.63;5009693;28;19913;-82
2022/11/25 14:31:36;;;;;;;;;;;;;;;14.16;55.32;101052.41;5007060;28;19913;-82
2022/11/25 14:34:23;;;;;;;;;;;;;;;14.12;55.54;101054.19;5004586;28;19917;-82
2022/11/25 14:37:13;;;;;;;;;;;;;;;14.22;54.93;101061.22;5021366;28;19914;-82
2022/11/25 14:40:05;;;;;;;;;;;;;;;14.39;54.09;101066.59;5026285;28;19913;-82